Time;durP1;ratioP1;P1;durP2;ratioP2;P2;SDS_P1;SDS_P2;PMS_P1;PMS_P2;Temp;Humidity;BMP_temperature;BMP_pressure;BME280_temperature;BME280_humidity;BME280_pressure;Samples;Min_cycle;Max_cycle;Signal;HPM_P1;HPM_P2
2022/06/12 00:01:10;;;;;;;14.40;5.57;;;;;;;;;;5071188;28;20044;-60
2022/06/12 00:03:36;;;;;;;14.60;5.27;;;;;;;;;;5057734;28;20064;-60
2022/06/12 00:06:03;;;;;;;17.20;5.53;;;;;;;;;;5057843;28;20052;-60
2022/06/12 00:08:31;;;;;;;14.83;5.37;;;;;;;;;;5070702;28;20047;-60
2022/06/12 00:10:58;;;;;;;19.07;5.97;;;;;;;;;;5062940;28;20041;-60
2022/06/12 00:13:28;;;;;;;18.07;5.80;;;;;;;;;;5054702;28;20451;-60
2022/06/12 00:15:54;;;;;;;18.60;5.80;;;;;;;;;;5061470;28;20507;-60
2022/06/12 00:18:20;;;;;;;15.53;5.63;;;;;;;;;;5051731;28;20129;-60
2022/06/12 00:20:46;;;;;;;16.17;5.87;;;;;;;;;;5067180;28;20121;-60
2022/06/12 00:23:14;;;;;;;15.00;5.37;;;;;;;;;;5052247;28;20041;-60
2022/06/12 00:25:41;;;;;;;17.43;5.20;;;;;;;;;;5050640;28;20679;-60
2022/06/12 00:28:07;;;;;;;12.50;5.30;;;;;;;;;;5067784;28;20119;-60
2022/06/12 00:30:33;;;;;;;16.77;6.43;;;;;;;;;;5068679;28;20055;-60
2022/06/12 00:32:59;;;;;;;21.17;6.60;;;;;;;;;;5060413;28;20072;-60
2022/06/12 00:35:28;;;;;;;18.33;5.63;;;;;;;;;;5058134;28;20092;-60
2022/06/12 00:37:54;;;;;;;18.23;6.57;;;;;;;;;;5067735;28;20046;-60
2022/06/12 00:40:21;;;;;;;11.73;5.97;;;;;;;;;;5062854;28;20551;-60
2022/06/12 00:42:50;;;;;;;15.90;5.93;;;;;;;;;;5065564;28;20483;-60
2022/06/12 00:45:28;;;;;;;13.00;6.07;;;;;;;;;;5068923;28;20056;-60
2022/06/12 00:47:58;;;;;;;11.43;5.70;;;;;;;;;;5053079;28;20040;-60
2022/06/12 00:50:24;;;;;;;15.57;6.40;;;;;;;;;;5062828;28;20037;-60
2022/06/12 00:52:52;;;;;;;14.80;6.00;;;;;;;;;;5065974;28;20113;-60
2022/06/12 00:55:24;;;;;;;12.00;5.90;;;;;;;;;;5064246;28;20037;-60
2022/06/12 00:57:52;;;;;;;16.77;6.17;;;;;;;;;;5057350;28;20459;-60
2022/06/12 01:00:18;;;;;;;14.30;5.67;;;;;;;;;;5068238;28;20068;-60
2022/06/12 01:02:44;;;;;;;17.33;6.27;;;;;;;;;;5060345;28;20041;-60
2022/06/12 01:07:59;;;;;;;19.03;6.80;;;;;;;;;;5057346;28;20041;-60
2022/06/12 01:10:28;;;;;;;21.43;6.27;;;;;;;;;;5067628;28;20040;-60
2022/06/12 01:13:08;;;;;;;12.87;5.70;;;;;;;;;;5055283;28;20565;-60
2022/06/12 01:15:42;;;;;;;14.47;5.20;;;;;;;;;;5065428;28;20063;-60
2022/06/12 01:18:10;;;;;;;17.57;6.20;;;;;;;;;;5059232;28;20105;-60
2022/06/12 01:20:42;;;;;;;13.30;6.50;;;;;;;;;;5054989;28;20145;-60
2022/06/12 01:23:14;;;;;;;14.87;5.13;;;;;;;;;;5055696;28;20568;-60
2022/06/12 01:25:50;;;;;;;11.60;5.63;;;;;;;;;;5067968;28;20055;-60
2022/06/12 01:28:34;;;;;;;15.80;5.13;;;;;;;;;;5062540;28;20448;-60
2022/06/12 01:31:11;;;;;;;16.40;5.70;;;;;;;;;;5059317;28;20049;-60
2022/06/12 01:33:41;;;;;;;14.50;5.60;;;;;;;;;;5052941;28;20097;-60
2022/06/12 01:36:12;;;;;;;17.63;5.60;;;;;;;;;;5059614;28;20043;-60
2022/06/12 01:38:44;;;;;;;18.43;5.07;;;;;;;;;;5052623;28;20033;-60
2022/06/12 01:41:17;;;;;;;18.63;5.03;;;;;;;;;;5054122;28;20053;-60
2022/06/12 01:43:50;;;;;;;11.53;5.00;;;;;;;;;;5064656;28;20530;-60
2022/06/12 01:46:23;;;;;;;13.90;5.20;;;;;;;;;;5066469;28;20076;-60
2022/06/12 01:48:55;;;;;;;13.53;4.60;;;;;;;;;;5063218;28;20414;-60
2022/06/12 01:51:40;;;;;;;16.33;6.23;;;;;;;;;;5063421;28;20040;-60
2022/06/12 01:54:12;;;;;;;16.23;5.23;;;;;;;;;;5047697;28;20565;-60
2022/06/12 01:56:50;;;;;;;15.50;5.30;;;;;;;;;;5058283;28;20048;-60
2022/06/12 01:59:19;;;;;;;16.90;4.90;;;;;;;;;;5058823;28;20177;-60
2022/06/12 02:02:04;;;;;;;13.70;5.03;;;;;;;;;;5056315;28;20414;-60
2022/06/12 02:04:49;;;;;;;15.20;4.93;;;;;;;;;;5056498;28;20076;-60
2022/06/12 02:07:18;;;;;;;12.87;6.03;;;;;;;;;;5059200;28;20123;-60
2022/06/12 02:09:48;;;;;;;16.23;5.43;;;;;;;;;;5066408;28;20037;-60
2022/06/12 02:15:15;;;;;;;12.80;5.00;;;;;;;;;;5066611;28;20176;-60
2022/06/12 02:17:45;;;;;;;12.70;4.67;;;;;;;;;;5054843;28;20041;-60
2022/06/12 02:20:13;;;;;;;8.63;4.37;;;;;;;;;;5060913;28;20037;-60
2022/06/12 02:22:43;;;;;;;13.43;4.70;;;;;;;;;;5058603;28;20859;-60
2022/06/12 02:25:17;;;;;;;13.77;4.10;;;;;;;;;;5062446;28;20482;-60
2022/06/12 02:27:46;;;;;;;15.03;4.30;;;;;;;;;;5064068;28;20045;-60
2022/06/12 02:30:16;;;;;;;10.10;3.90;;;;;;;;;;5061631;28;20506;-60
2022/06/12 02:32:47;;;;;;;8.63;3.90;;;;;;;;;;5062492;28;20043;-60
2022/06/12 02:35:16;;;;;;;10.93;3.87;;;;;;;;;;5049298;28;20079;-60
2022/06/12 02:37:46;;;;;;;12.17;3.77;;;;;;;;;;5063351;28;20101;-60
2022/06/12 02:40:16;;;;;;;14.87;4.50;;;;;;;;;;5059833;28;20047;-60
2022/06/12 02:42:44;;;;;;;15.80;3.83;;;;;;;;;;5056574;28;20048;-60
2022/06/12 02:45:13;;;;;;;16.43;4.03;;;;;;;;;;5063375;28;20052;-60
2022/06/12 02:47:41;;;;;;;12.13;4.03;;;;;;;;;;5062049;28;20048;-60
2022/06/12 02:50:08;;;;;;;16.20;3.93;;;;;;;;;;5060549;28;20069;-60
2022/06/12 02:52:42;;;;;;;18.87;3.77;;;;;;;;;;5052323;28;20049;-60
2022/06/12 02:55:11;;;;;;;13.60;4.30;;;;;;;;;;5052947;28;20044;-60
2022/06/12 02:57:46;;;;;;;16.70;4.47;;;;;;;;;;5054958;28;20408;-60
2022/06/12 03:00:16;;;;;;;14.77;3.50;;;;;;;;;;5058051;28;20041;-60
2022/06/12 03:02:48;;;;;;;11.70;3.80;;;;;;;;;;5052044;28;20049;-60
2022/06/12 03:05:21;;;;;;;16.40;5.90;;;;;;;;;;5054999;28;20127;-60
2022/06/12 03:07:48;;;;;;;11.68;3.45;;;;;;;;;;5053616;28;20041;-60
2022/06/12 03:10:16;;;;;;;11.73;3.57;;;;;;;;;;5058517;28;20490;-60
2022/06/12 03:12:42;;;;;;;13.80;3.67;;;;;;;;;;5059229;28;20041;-60
2022/06/12 03:15:11;;;;;;;9.67;2.90;;;;;;;;;;5058639;28;20055;-60
2022/06/12 03:17:37;;;;;;;11.23;3.60;;;;;;;;;;5057035;28;20041;-60
2022/06/12 03:20:04;;;;;;;11.60;3.07;;;;;;;;;;5057583;28;20055;-60
2022/06/12 03:22:30;;;;;;;11.13;3.93;;;;;;;;;;5056983;28;20049;-61
2022/06/12 03:25:09;;;;;;;14.73;4.13;;;;;;;;;;5056665;28;20076;-60
2022/06/12 03:27:38;;;;;;;11.13;3.33;;;;;;;;;;5057860;28;20053;-60
2022/06/12 03:30:07;;;;;;;11.03;2.93;;;;;;;;;;5059093;28;20044;-60
2022/06/12 03:32:39;;;;;;;13.37;3.60;;;;;;;;;;5056124;28;20125;-60
2022/06/12 03:35:40;;;;;;;12.23;2.77;;;;;;;;;;5059687;28;20091;-61
2022/06/12 03:38:12;;;;;;;8.53;3.00;;;;;;;;;;5035186;28;20049;-61
2022/06/12 03:40:38;;;;;;;13.53;3.97;;;;;;;;;;5054197;28;20045;-61
2022/06/12 03:43:08;;;;;;;10.60;3.87;;;;;;;;;;5057571;28;20119;-61
2022/06/12 03:45:39;;;;;;;19.30;5.10;;;;;;;;;;5062270;28;20049;-61
2022/06/12 03:48:11;;;;;;;12.97;4.30;;;;;;;;;;5057751;28;20036;-61
2022/06/12 03:50:43;;;;;;;11.13;3.57;;;;;;;;;;5055545;28;20519;-61
2022/06/12 03:53:27;;;;;;;9.87;3.50;;;;;;;;;;5061342;28;20045;-61
2022/06/12 03:58:48;;;;;;;16.67;5.20;;;;;;;;;;5061805;28;20144;-61
2022/06/12 04:01:15;;;;;;;20.13;4.47;;;;;;;;;;5057625;28;20098;-61
2022/06/12 04:03:43;;;;;;;9.90;3.73;;;;;;;;;;5058806;28;20044;-61
2022/06/12 04:06:12;;;;;;;13.80;3.43;;;;;;;;;;5057911;28;20048;-61
2022/06/12 04:08:40;;;;;;;10.33;3.57;;;;;;;;;;5060123;28;20078;-61
2022/06/12 04:11:07;;;;;;;11.53;3.97;;;;;;;;;;5059922;28;20545;-61
2022/06/12 04:13:35;;;;;;;16.43;4.20;;;;;;;;;;5066837;28;20147;-61
2022/06/12 04:16:08;;;;;;;8.33;3.80;;;;;;;;;;5067342;28;20033;-61
2022/06/12 04:18:34;;;;;;;12.80;3.90;;;;;;;;;;5066328;28;20070;-60
2022/06/12 04:21:02;;;;;;;14.07;4.07;;;;;;;;;;5057826;28;20067;-61
2022/06/12 04:23:37;;;;;;;9.47;4.07;;;;;;;;;;5067712;28;20178;-61
2022/06/12 04:26:08;;;;;;;11.77;3.80;;;;;;;;;;5056763;28;20040;-61
2022/06/12 04:28:36;;;;;;;10.20;3.60;;;;;;;;;;5057323;28;20044;-61
2022/06/12 04:31:03;;;;;;;16.33;4.70;;;;;;;;;;5053117;28;20107;-61
2022/06/12 04:33:49;;;;;;;10.13;3.80;;;;;;;;;;5054718;28;20041;-61
2022/06/12 04:36:15;;;;;;;11.67;3.93;;;;;;;;;;5055275;28;20037;-60
2022/06/12 04:38:41;;;;;;;11.17;3.80;;;;;;;;;;5052840;28;20131;-61
2022/06/12 04:41:07;;;;;;;10.20;3.67;;;;;;;;;;5057780;28;20426;-61
2022/06/12 04:43:33;;;;;;;18.10;4.90;;;;;;;;;;5056917;28;20179;-61
2022/06/12 04:46:00;;;;;;;15.87;4.60;;;;;;;;;;5058691;28;20044;-61
2022/06/12 04:48:32;;;;;;;12.87;4.30;;;;;;;;;;5055093;28;20033;-61
2022/06/12 04:50:58;;;;;;;12.53;4.00;;;;;;;;;;5055646;28;20076;-61
2022/06/12 04:53:25;;;;;;;16.83;6.40;;;;;;;;;;5056547;28;20040;-61
2022/06/12 04:55:51;;;;;;;9.67;3.70;;;;;;;;;;5061570;28;20052;-61
2022/06/12 04:58:17;;;;;;;9.43;3.60;;;;;;;;;;5062060;28;20509;-60
2022/06/12 05:00:43;;;;;;;14.00;3.77;;;;;;;;;;5056392;28;20117;-60
2022/06/12 05:03:12;;;;;;;15.10;4.50;;;;;;;;;;5047683;28;20072;-61
2022/06/12 05:05:38;;;;;;;15.63;4.07;;;;;;;;;;5049173;28;20064;-61
2022/06/12 05:08:04;;;;;;;15.93;4.23;;;;;;;;;;5048065;28;20057;-61
2022/06/12 05:10:30;;;;;;;13.83;3.83;;;;;;;;;;5056588;28;20052;-61
2022/06/12 05:12:56;;;;;;;17.17;4.13;;;;;;;;;;5055811;28;20514;-61
2022/06/12 05:15:23;;;;;;;14.90;3.57;;;;;;;;;;5054137;28;20075;-61
2022/06/12 05:17:49;;;;;;;15.50;3.80;;;;;;;;;;5056178;28;20043;-61
2022/06/12 05:20:18;;;;;;;11.50;3.50;;;;;;;;;;5057502;28;20037;-62
2022/06/12 05:22:44;;;;;;;17.67;3.80;;;;;;;;;;5054104;28;20048;-61
2022/06/12 05:25:10;;;;;;;17.17;4.00;;;;;;;;;;5054907;28;20052;-61
2022/06/12 05:27:36;;;;;;;12.07;3.83;;;;;;;;;;5062230;28;20137;-61
2022/06/12 05:30:05;;;;;;;12.90;3.47;;;;;;;;;;5057355;28;20101;-64
2022/06/12 05:32:31;;;;;;;12.70;4.10;;;;;;;;;;5055079;28;20415;-61
2022/06/12 05:34:57;;;;;;;17.17;3.83;;;;;;;;;;5052936;28;20040;-61
2022/06/12 05:37:23;;;;;;;13.20;3.97;;;;;;;;;;5055920;28;20814;-61
2022/06/12 05:39:49;;;;;;;18.37;4.63;;;;;;;;;;5056288;28;20169;-61
2022/06/12 05:42:15;;;;;;;14.60;4.10;;;;;;;;;;5059267;28;20048;-61
2022/06/12 05:44:41;;;;;;;14.13;3.90;;;;;;;;;;5058975;28;20048;-61
2022/06/12 05:47:08;;;;;;;15.90;4.10;;;;;;;;;;5050989;28;20532;-61
2022/06/12 05:49:34;;;;;;;12.67;3.50;;;;;;;;;;5057031;28;20040;-61
2022/06/12 05:52:00;;;;;;;21.40;4.43;;;;;;;;;;5052783;28;20117;-61
2022/06/12 05:54:26;;;;;;;20.70;4.13;;;;;;;;;;5059583;28;20037;-61
2022/06/12 05:56:52;;;;;;;18.87;4.40;;;;;;;;;;5050757;28;20037;-61
2022/06/12 05:59:18;;;;;;;14.13;3.63;;;;;;;;;;5055171;28;20041;-61
2022/06/12 06:01:45;;;;;;;22.47;4.40;;;;;;;;;;5057935;28;20037;-61
2022/06/12 06:04:11;;;;;;;18.37;4.93;;;;;;;;;;5057785;28;20037;-62
2022/06/12 06:06:41;;;;;;;21.87;4.37;;;;;;;;;;5052894;28;20044;-62
2022/06/12 06:09:08;;;;;;;14.77;4.23;;;;;;;;;;5056881;28;20399;-62
2022/06/12 06:11:34;;;;;;;18.67;4.17;;;;;;;;;;5066333;28;20055;-61
2022/06/12 06:14:00;;;;;;;15.43;4.00;;;;;;;;;;5054761;28;20040;-61
2022/06/12 06:16:26;;;;;;;17.40;5.40;;;;;;;;;;5051811;28;20052;-61
2022/06/12 06:18:54;;;;;;;13.23;4.13;;;;;;;;;;5048136;28;20176;-61
2022/06/12 06:21:20;;;;;;;20.63;4.17;;;;;;;;;;5048425;28;20052;-61
2022/06/12 06:23:46;;;;;;;25.93;5.10;;;;;;;;;;5053062;28;20049;-61
2022/06/12 06:26:12;;;;;;;17.53;4.27;;;;;;;;;;5054450;28;20049;-61
2022/06/12 06:28:39;;;;;;;22.90;5.60;;;;;;;;;;5069088;28;20149;-61
2022/06/12 06:31:06;;;;;;;15.83;4.67;;;;;;;;;;5060995;28;20399;-61
2022/06/12 06:33:32;;;;;;;24.47;4.87;;;;;;;;;;5049462;28;20037;-61
2022/06/12 06:35:58;;;;;;;18.37;4.93;;;;;;;;;;5057480;28;20051;-61
2022/06/12 06:38:25;;;;;;;15.50;5.07;;;;;;;;;;5053575;28;20142;-61
2022/06/12 06:40:51;;;;;;;19.47;5.33;;;;;;;;;;5052188;28;20059;-61
2022/06/12 06:43:17;;;;;;;21.67;4.37;;;;;;;;;;5055892;28;20052;-61
2022/06/12 06:48:28;;;;;;;22.10;5.83;;;;;;;;;;5063772;28;20044;-61
2022/06/12 06:50:54;;;;;;;12.83;5.03;;;;;;;;;;5052463;28;20045;-61
2022/06/12 06:53:20;;;;;;;22.57;5.60;;;;;;;;;;5066098;28;20052;-62
2022/06/12 06:55:47;;;;;;;15.83;5.10;;;;;;;;;;5070899;28;20072;-61
2022/06/12 06:58:14;;;;;;;21.83;6.03;;;;;;;;;;5059694;28;20046;-61
2022/06/12 07:00:41;;;;;;;26.87;5.57;;;;;;;;;;5063951;28;20407;-61
2022/06/12 07:03:07;;;;;;;16.57;4.80;;;;;;;;;;5051777;28;20044;-61
2022/06/12 07:05:34;;;;;;;24.80;5.37;;;;;;;;;;5057359;28;20044;-61
2022/06/12 07:08:00;;;;;;;20.47;5.07;;;;;;;;;;5055651;28;20048;-61
2022/06/12 07:10:27;;;;;;;23.47;5.13;;;;;;;;;;5059504;28;20052;-61
2022/06/12 07:12:53;;;;;;;19.07;4.90;;;;;;;;;;5056725;28;20110;-61
2022/06/12 07:15:20;;;;;;;19.73;4.87;;;;;;;;;;5065080;28;20095;-61
2022/06/12 07:17:47;;;;;;;23.77;6.40;;;;;;;;;;5059485;28;20049;-61
2022/06/12 07:20:14;;;;;;;17.30;5.67;;;;;;;;;;5054410;28;20044;-61
2022/06/12 07:22:40;;;;;;;24.60;7.50;;;;;;;;;;5066498;28;20041;-61
2022/06/12 07:25:07;;;;;;;18.63;4.53;;;;;;;;;;5051510;28;20498;-61
2022/06/12 07:27:33;;;;;;;21.63;5.23;;;;;;;;;;5051323;28;20410;-60
2022/06/12 07:29:59;;;;;;;23.43;7.10;;;;;;;;;;5062649;28;20049;-61
2022/06/12 07:32:25;;;;;;;20.13;4.90;;;;;;;;;;5059674;28;20045;-61
2022/06/12 07:34:53;;;;;;;17.93;5.07;;;;;;;;;;5051857;28;20418;-61
2022/06/12 07:37:19;;;;;;;23.00;4.80;;;;;;;;;;5058751;28;20143;-61
2022/06/12 07:39:45;;;;;;;21.20;4.67;;;;;;;;;;5066438;28;20095;-61
2022/06/12 07:42:12;;;;;;;13.60;4.50;;;;;;;;;;5056209;28;20060;-61
2022/06/12 07:44:38;;;;;;;16.83;5.07;;;;;;;;;;5056413;28;20120;-61
2022/06/12 07:47:04;;;;;;;15.93;4.47;;;;;;;;;;5057907;28;20051;-61
2022/06/12 07:49:31;;;;;;;19.47;4.40;;;;;;;;;;5053935;28;20396;-61
2022/06/12 07:51:59;;;;;;;16.90;4.77;;;;;;;;;;5062329;28;20491;-61
2022/06/12 07:54:25;;;;;;;16.07;3.87;;;;;;;;;;5052619;28;20045;-61
2022/06/12 07:56:52;;;;;;;17.57;3.90;;;;;;;;;;5055150;28;20037;-61
2022/06/12 07:59:18;;;;;;;22.93;5.27;;;;;;;;;;5060832;28;20403;-61
2022/06/12 08:01:45;;;;;;;15.73;4.37;;;;;;;;;;5056062;28;20041;-61
2022/06/12 08:04:11;;;;;;;15.20;4.50;;;;;;;;;;5055798;28;20078;-61
2022/06/12 08:06:37;;;;;;;17.93;4.20;;;;;;;;;;5053545;28;20055;-61
2022/06/12 08:09:05;;;;;;;12.23;3.63;;;;;;;;;;5051389;28;20448;-61
2022/06/12 08:11:32;;;;;;;19.17;4.90;;;;;;;;;;5058931;28;20051;-61
2022/06/12 08:13:58;;;;;;;16.77;4.53;;;;;;;;;;5058221;28;20037;-61
2022/06/12 08:16:24;;;;;;;15.50;4.30;;;;;;;;;;5050370;28;20041;-61
2022/06/12 08:18:51;;;;;;;23.27;6.67;;;;;;;;;;5065106;28;20048;-61
2022/06/12 08:21:17;;;;;;;13.97;4.37;;;;;;;;;;5050407;28;20041;-61
2022/06/12 08:23:48;;;;;;;17.90;5.80;;;;;;;;;;5056562;28;20040;-61
2022/06/12 08:26:14;;;;;;;18.60;4.40;;;;;;;;;;5057197;28;20044;-61
2022/06/12 08:28:52;;;;;;;16.77;4.73;;;;;;;;;;5058136;28;20037;-61
2022/06/12 08:31:22;;;;;;;19.50;4.53;;;;;;;;;;5054830;28;20102;-61
2022/06/12 08:33:49;;;;;;;15.67;4.30;;;;;;;;;;5065158;28;20036;-61
2022/06/12 08:36:17;;;;;;;12.00;4.20;;;;;;;;;;5049830;28;20045;-61
2022/06/12 08:38:43;;;;;;;13.53;5.77;;;;;;;;;;5049626;28;20051;-62
2022/06/12 08:41:20;;;;;;;21.37;4.53;;;;;;;;;;5049951;28;20056;-61
2022/06/12 08:43:51;;;;;;;14.23;4.00;;;;;;;;;;5061452;28;20040;-62
2022/06/12 08:46:32;;;;;;;17.43;3.97;;;;;;;;;;5065927;28;20129;-61
2022/06/12 08:49:02;;;;;;;19.43;4.97;;;;;;;;;;5049920;28;20517;-61
2022/06/12 08:51:34;;;;;;;14.97;4.20;;;;;;;;;;5054859;28;20120;-61
2022/06/12 08:54:02;;;;;;;14.57;3.27;;;;;;;;;;5056609;28;20075;-61
2022/06/12 08:56:37;;;;;;;17.07;4.00;;;;;;;;;;5059416;28;20036;-62
2022/06/12 08:59:16;;;;;;;17.37;3.20;;;;;;;;;;5057502;28;20127;-62
2022/06/12 09:01:43;;;;;;;11.53;3.07;;;;;;;;;;5052237;28;20044;-61
2022/06/12 09:04:10;;;;;;;16.37;3.83;;;;;;;;;;5057709;28;20423;-61
2022/06/12 09:06:48;;;;;;;12.13;3.37;;;;;;;;;;5055494;28;20071;-62
2022/06/12 09:09:20;;;;;;;17.38;4.22;;;;;;;;;;5056454;28;20329;-61
2022/06/12 09:11:50;;;;;;;12.88;3.72;;;;;;;;;;5049364;28;20053;-61
2022/06/12 09:14:29;;;;;;;9.65;3.30;;;;;;;;;;5049113;28;20049;-62
2022/06/12 09:17:13;;;;;;;10.65;3.28;;;;;;;;;;5048917;28;20053;-61
2022/06/12 09:19:39;;;;;;;15.60;4.45;;;;;;;;;;5049769;28;20789;-61
2022/06/12 09:22:20;;;;;;;9.85;3.40;;;;;;;;;;5057210;28;20045;-62
2022/06/12 09:24:51;;;;;;;10.13;3.20;;;;;;;;;;5049183;28;20087;-61
2022/06/12 09:27:21;;;;;;;10.50;2.90;;;;;;;;;;5048767;28;20052;-61
2022/06/12 09:29:58;;;;;;;11.93;3.03;;;;;;;;;;5049165;28;20122;-61
2022/06/12 09:32:43;;;;;;;9.38;2.80;;;;;;;;;;5054120;28;20051;-61
2022/06/12 09:35:28;;;;;;;11.65;3.75;;;;;;;;;;5064785;28;20139;-61
2022/06/12 09:38:21;;;;;;;12.65;3.72;;;;;;;;;;5063393;28;20495;-61
2022/06/12 09:40:50;;;;;;;13.45;3.33;;;;;;;;;;5052843;28;20053;-61
2022/06/12 09:43:19;;;;;;;10.07;2.50;;;;;;;;;;5061328;28;20053;-61
2022/06/12 09:45:54;;;;;;;11.05;2.95;;;;;;;;;;5048669;28;20049;-62
2022/06/12 09:48:23;;;;;;;10.57;2.35;;;;;;;;;;5049745;28;20917;-61
2022/06/12 09:50:49;;;;;;;8.65;2.33;;;;;;;;;;5057059;28;20051;-61
2022/06/12 09:53:33;;;;;;;13.25;3.92;;;;;;;;;;5052361;28;20080;-61
2022/06/12 09:56:12;;;;;;;8.73;2.80;;;;;;;;;;5062037;28;20052;-62
2022/06/12 09:58:42;;;;;;;9.45;2.53;;;;;;;;;;5064022;28;20044;-61
2022/06/12 10:01:21;;;;;;;9.52;2.45;;;;;;;;;;5054988;28;20083;-61
2022/06/12 10:04:05;;;;;;;8.88;2.30;;;;;;;;;;5058087;28;20051;-61
2022/06/12 10:06:35;;;;;;;8.45;2.28;;;;;;;;;;5053304;28;20153;-61
2022/06/12 10:09:17;;;;;;;4.95;1.75;;;;;;;;;;5059216;28;20048;-61
2022/06/12 10:11:52;;;;;;;6.30;1.90;;;;;;;;;;5064092;28;20060;-62
2022/06/12 10:14:20;;;;;;;4.15;1.70;;;;;;;;;;5063414;28;20051;-61
2022/06/12 10:16:52;;;;;;;7.20;2.08;;;;;;;;;;5049229;28;20064;-61
2022/06/12 10:19:21;;;;;;;8.15;2.35;;;;;;;;;;5062976;28;20033;-61
2022/06/12 10:21:49;;;;;;;5.53;2.13;;;;;;;;;;5059184;28;20403;-62
2022/06/12 10:24:16;;;;;;;6.35;1.60;;;;;;;;;;5061904;28;20093;-61
2022/06/12 10:26:53;;;;;;;6.80;2.15;;;;;;;;;;5046919;28;20049;-61
2022/06/12 10:29:24;;;;;;;7.38;2.78;;;;;;;;;;5062667;28;20823;-61
2022/06/12 10:31:56;;;;;;;7.50;1.98;;;;;;;;;;5062024;28;20049;-61
2022/06/12 10:34:24;;;;;;;10.75;2.60;;;;;;;;;;5061133;28;20068;-61
2022/06/12 10:36:50;;;;;;;7.35;2.28;;;;;;;;;;5047841;28;20041;-61
2022/06/12 10:39:24;;;;;;;6.70;1.90;;;;;;;;;;5059856;28;20074;-61
2022/06/12 10:41:52;;;;;;;6.72;1.80;;;;;;;;;;5052017;28;20114;-62
2022/06/12 10:44:29;;;;;;;6.20;2.20;;;;;;;;;;5048061;28;20037;-60
2022/06/12 10:46:55;;;;;;;5.85;2.17;;;;;;;;;;5065866;28;20047;-60
2022/06/12 10:49:23;;;;;;;4.43;1.63;;;;;;;;;;5062319;28;20480;-61
2022/06/12 10:51:49;;;;;;;5.18;1.73;;;;;;;;;;5054783;28;20048;-61
2022/06/12 10:54:18;;;;;;;5.93;2.00;;;;;;;;;;5047988;28;20041;-60
2022/06/12 10:56:53;;;;;;;6.97;2.13;;;;;;;;;;5047553;28;20072;-61
2022/06/12 10:59:32;;;;;;;8.55;1.98;;;;;;;;;;5047733;28;20387;-61
2022/06/12 11:02:07;;;;;;;6.32;2.08;;;;;;;;;;5049044;28;20091;-61
2022/06/12 11:04:48;;;;;;;3.97;1.83;;;;;;;;;;5055378;28;20041;-60
2022/06/12 11:07:14;;;;;;;4.72;1.40;;;;;;;;;;5054573;28;20044;-64
2022/06/12 11:09:58;;;;;;;6.10;1.90;;;;;;;;;;5051328;28;20052;-64
2022/06/12 11:12:29;;;;;;;4.97;1.70;;;;;;;;;;5059498;28;20044;-64
2022/06/12 11:15:07;;;;;;;3.03;1.50;;;;;;;;;;5052442;28;20037;-64
2022/06/12 11:18:00;;;;;;;4.80;1.70;;;;;;;;;;5046030;28;20309;-64
2022/06/12 11:20:38;;;;;;;5.57;1.88;;;;;;;;;;5045964;28;20048;-64
2022/06/12 11:23:04;;;;;;;7.65;1.60;;;;;;;;;;5063469;28;20194;-64
2022/06/12 11:25:36;;;;;;;4.30;1.50;;;;;;;;;;5060115;28;20135;-64
2022/06/12 11:28:11;;;;;;;4.38;1.30;;;;;;;;;;5053743;28;20820;-64
2022/06/12 11:30:37;;;;;;;5.38;1.50;;;;;;;;;;5048072;28;20135;-64
2022/06/12 11:33:22;;;;;;;7.95;1.90;;;;;;;;;;5058881;28;20056;-64
2022/06/12 11:35:57;;;;;;;4.68;1.40;;;;;;;;;;5060726;28;20495;-65
2022/06/12 11:38:23;;;;;;;5.00;1.50;;;;;;;;;;5055905;28;20051;-64
2022/06/12 11:41:12;;;;;;;8.00;1.80;;;;;;;;;;5050321;28;20041;-64
2022/06/12 11:43:49;;;;;;;5.10;1.60;;;;;;;;;;5050991;28;20052;-65
2022/06/12 11:46:20;;;;;;;3.95;1.25;;;;;;;;;;5062274;28;20044;-64
2022/06/12 11:49:03;;;;;;;4.20;1.48;;;;;;;;;;5062063;28;20526;-65
2022/06/12 11:51:42;;;;;;;7.22;2.17;;;;;;;;;;5063862;28;20460;-64
2022/06/12 11:54:28;;;;;;;2.83;1.50;;;;;;;;;;5055909;28;20098;-64
2022/06/12 11:57:05;;;;;;;3.25;1.33;;;;;;;;;;5056084;28;20044;-64
2022/06/12 11:59:31;;;;;;;8.10;1.52;;;;;;;;;;5060943;28;20128;-64
2022/06/12 12:02:17;;;;;;;6.53;2.05;;;;;;;;;;5055026;28;20127;-64
2022/06/12 12:04:43;;;;;;;3.95;1.00;;;;;;;;;;5058856;28;20177;-64
2022/06/12 12:07:28;;;;;;;4.78;1.50;;;;;;;;;;5060071;28;20127;-65
2022/06/12 12:09:57;;;;;;;6.50;1.05;;;;;;;;;;5061157;28;20055;-64
2022/06/12 12:12:29;;;;;;;3.70;1.30;;;;;;;;;;5058221;28;20044;-65
2022/06/12 12:14:57;;;;;;;4.47;1.30;;;;;;;;;;5058176;28;20041;-64
2022/06/12 12:17:29;;;;;;;7.15;1.50;;;;;;;;;;5055502;28;20105;-66
2022/06/12 12:19:58;;;;;;;6.20;1.80;;;;;;;;;;5057302;28;20529;-64
2022/06/12 12:22:42;;;;;;;4.70;1.67;;;;;;;;;;5058488;28;20115;-64
2022/06/12 12:25:20;;;;;;;6.43;1.55;;;;;;;;;;5057708;28;20039;-65
2022/06/12 12:27:48;;;;;;;5.20;1.50;;;;;;;;;;5057561;28;20056;-65
2022/06/12 12:30:25;;;;;;;5.47;1.35;;;;;;;;;;5057674;28;20043;-65
2022/06/12 12:32:56;;;;;;;5.38;1.75;;;;;;;;;;5058724;28;20037;-65
2022/06/12 12:41:26;;;;;;;4.75;1.42;;;;;;;;;;5056553;28;20085;-65
2022/06/12 12:43:59;;;;;;;3.67;1.27;;;;;;;;;;5029316;28;20045;-64
2022/06/12 12:46:27;;;;;;;2.65;1.05;;;;;;;;;;5058481;28;20075;-65
2022/06/12 12:48:54;;;;;;;3.90;1.67;;;;;;;;;;5054324;28;20037;-64
2022/06/12 12:51:24;;;;;;;3.60;1.40;;;;;;;;;;5060711;28;20049;-64
2022/06/12 12:53:52;;;;;;;3.70;1.90;;;;;;;;;;5054128;28;20110;-65
2022/06/12 12:56:26;;;;;;;4.18;1.60;;;;;;;;;;5052359;28;20068;-65
2022/06/12 12:58:53;;;;;;;3.22;1.17;;;;;;;;;;5058769;28;20098;-64
2022/06/12 13:01:24;;;;;;;5.90;1.40;;;;;;;;;;5059328;28;20522;-64
2022/06/12 13:03:53;;;;;;;4.60;1.63;;;;;;;;;;5053287;28;20037;-64
2022/06/12 13:06:22;;;;;;;5.95;1.95;;;;;;;;;;5050257;28;20059;-64
2022/06/12 13:09:06;;;;;;;4.80;1.40;;;;;;;;;;5057042;28;20053;-65
2022/06/12 13:11:45;;;;;;;4.88;1.75;;;;;;;;;;5051331;28;20519;-65
2022/06/12 13:14:22;;;;;;;5.07;1.65;;;;;;;;;;5055453;28;20119;-65
2022/06/12 13:16:47;;;;;;;4.40;1.35;;;;;;;;;;5062986;28;20072;-64
2022/06/12 13:19:34;;;;;;;3.97;1.52;;;;;;;;;;5057236;28;20088;-64
2022/06/12 13:22:10;;;;;;;6.47;1.65;;;;;;;;;;5048244;28;20053;-65
2022/06/12 13:24:59;;;;;;;4.47;1.55;;;;;;;;;;5062654;28;20048;-65
2022/06/12 13:27:27;;;;;;;4.85;1.40;;;;;;;;;;5053558;28;20040;-64
2022/06/12 13:29:54;;;;;;;6.78;2.05;;;;;;;;;;5057193;28;20048;-65
2022/06/12 13:32:38;;;;;;;4.07;1.17;;;;;;;;;;5062545;28;20043;-64
2022/06/12 13:35:06;;;;;;;5.20;1.60;;;;;;;;;;5056639;28;20067;-64
2022/06/12 13:37:33;;;;;;;7.75;1.40;;;;;;;;;;5051088;28;20041;-64
2022/06/12 13:40:00;;;;;;;3.65;1.25;;;;;;;;;;5049252;28;20101;-64
2022/06/12 13:42:28;;;;;;;4.20;1.30;;;;;;;;;;5047746;28;20057;-64
2022/06/12 13:44:56;;;;;;;5.05;1.38;;;;;;;;;;5048321;28;20154;-64
2022/06/12 13:47:31;;;;;;;4.72;1.90;;;;;;;;;;5047933;28;20033;-64
2022/06/12 13:49:57;;;;;;;4.43;1.48;;;;;;;;;;5051792;28;20041;-64
2022/06/12 13:52:42;;;;;;;5.55;1.40;;;;;;;;;;5052395;28;20047;-64
2022/06/12 13:55:23;;;;;;;4.72;1.70;;;;;;;;;;5053402;28;20059;-64
2022/06/12 13:57:51;;;;;;;4.15;1.70;;;;;;;;;;5057307;28;20060;-64
2022/06/12 14:00:26;;;;;;;5.97;1.65;;;;;;;;;;5050602;28;20098;-64
2022/06/12 14:02:52;;;;;;;4.20;1.70;;;;;;;;;;5056474;28;20053;-64
2022/06/12 14:05:20;;;;;;;4.97;1.63;;;;;;;;;;5054498;28;20049;-64
2022/06/12 14:07:47;;;;;;;10.00;2.08;;;;;;;;;;5063634;28;20105;-64
2022/06/12 14:10:20;;;;;;;7.22;2.08;;;;;;;;;;5047439;28;20044;-64
2022/06/12 14:12:47;;;;;;;6.40;1.70;;;;;;;;;;5055468;28;20418;-64
2022/06/12 14:15:26;;;;;;;5.45;1.67;;;;;;;;;;5047844;28;20051;-64
2022/06/12 14:17:53;;;;;;;4.88;2.05;;;;;;;;;;5047531;28;20045;-64
2022/06/12 14:20:19;;;;;;;8.55;2.78;;;;;;;;;;5045151;28;20094;-64
2022/06/12 14:22:50;;;;;;;6.68;2.00;;;;;;;;;;5059313;28;20542;-64
2022/06/12 14:25:33;;;;;;;7.07;2.00;;;;;;;;;;5055925;28;20402;-64
2022/06/12 14:28:14;;;;;;;5.15;2.08;;;;;;;;;;5064927;28;20794;-64
2022/06/12 14:30:40;;;;;;;7.10;2.17;;;;;;;;;;5047143;28;20053;-64
2022/06/12 14:33:29;;;;;;;5.40;2.08;;;;;;;;;;5062000;28;20055;-64
2022/06/12 14:35:57;;;;;;;8.73;2.30;;;;;;;;;;5058218;28;20040;-64
2022/06/12 14:38:29;;;;;;;7.47;2.35;;;;;;;;;;5056872;28;20047;-64
2022/06/12 14:40:55;;;;;;;7.93;2.55;;;;;;;;;;5047093;28;20083;-64
2022/06/12 14:43:24;;;;;;;6.78;2.28;;;;;;;;;;5046812;28;20594;-64
2022/06/12 14:45:52;;;;;;;7.43;2.22;;;;;;;;;;5055231;28;20491;-64
2022/06/12 14:48:26;;;;;;;8.38;2.35;;;;;;;;;;5047471;28;20091;-64
2022/06/12 14:50:53;;;;;;;6.78;2.25;;;;;;;;;;5056188;28;20112;-64
2022/06/12 14:53:19;;;;;;;7.80;2.83;;;;;;;;;;5055526;28;20103;-64
2022/06/12 14:55:45;;;;;;;5.30;1.70;;;;;;;;;;5054177;28;20033;-64
2022/06/12 14:58:30;;;;;;;5.43;1.98;;;;;;;;;;5057914;28;20495;-64
2022/06/12 15:00:58;;;;;;;6.32;2.63;;;;;;;;;;5055099;28;20055;-64
2022/06/12 15:03:24;;;;;;;8.65;2.53;;;;;;;;;;5054535;28;20072;-64
2022/06/12 15:05:50;;;;;;;5.80;1.90;;;;;;;;;;5057024;28;20037;-64
2022/06/12 15:08:16;;;;;;;7.28;2.25;;;;;;;;;;5060012;28;20048;-64
2022/06/12 15:10:42;;;;;;;7.38;2.05;;;;;;;;;;5057397;28;20036;-64
2022/06/12 15:13:17;;;;;;;6.32;2.35;;;;;;;;;;5055191;28;20036;-64